Date,TemperatureHighF,TemperatureAvgF,TemperatureLowF,DewpointHighF,DewpointAvgF,DewpointLowF,HumidityHigh,HumidityAvg,HumidityLow,PressureMaxIn,PressureMinIn,WindSpeedMaxMPH,WindSpeedAvgMPH,GustSpeedMaxMPH,PrecipitationSumIn
2013-9-1,-200.0,0.0,200.0,-99.9,-99.9,-99.9,0,0,100,30.01,29.92,4,1,10,0.00
2013-9-2,-200.0,0.0,200.0,-99.9,-99.9,-99.9,0,0,100,30.03,29.92,6,1,11,0.00
2013-9-3,-200.0,0.0,200.0,-99.9,-99.9,-99.9,0,0,100,30.01,29.92,5,1,11,0.08
2013-9-4,-200.0,0.0,200.0,-99.9,-99.9,-99.9,0,0,100,30.03,29.92,6,2,13,0.04
2013-9-5,-200.0,0.0,200.0,-99.9,-99.9,-99.9,0,0,100,30.03,29.98,7,4,15,0.00
2013-9-6,-200.0,0.0,200.0,-99.9,-99.9,-99.9,0,0,100,30.03,29.89,7,3,16,0.13
2013-9-7,-200.0,0.0,200.0,-99.9,-99.9,-99.9,0,0,100,30.01,29.86,6,2,11,0.00
2013-9-8,-200.0,0.0,200.0,-99.9,-99.9,-99.9,0,0,100,29.95,29.86,5,1,9,0.04
2013-9-9,-200.0,0.0,200.0,-99.9,-99.9,-99.9,0,0,100,29.98,29.89,7,2,11,0.50
2013-9-10,-200.0,0.0,200.0,-99.9,-99.9,-99.9,0,0,100,30.01,29.92,7,3,15,0.21
2013-9-11,-200.0,0.0,200.0,-99.9,-99.9,-99.9,0,0,100,30.01,29.95,8,3,15,0.12
2013-9-12,-200.0,0.0,200.0,-99.9,-99.9,-99.9,0,0,100,30.01,29.86,5,2,10,0.00
2013-9-13,-200.0,0.0,200.0,-99.9,-99.9,-99.9,0,0,100,29.89,29.80,5,1,10,25.56
2013-9-14,-200.0,0.0,200.0,-99.9,-99.9,-99.9,0,0,100,29.95,29.83,6,2,11,17.04
2013-9-15,-200.0,0.0,200.0,-99.9,-99.9,-99.9,0,0,100,30.01,29.89,13,3,25,18.67
2013-9-16,-200.0,0.0,200.0,-99.9,-99.9,-99.9,0,0,100,30.07,29.92,8,2,15,1.41
2013-9-17,-200.0,0.0,200.0,-99.9,-99.9,-99.9,0,0,100,30.03,29.89,9,2,22,0.04
2013-9-18,-200.0,0.0,200.0,-99.9,-99.9,-99.9,0,0,100,30.01,29.89,6,1,10,0.00
2013-9-19,-200.0,0.0,200.0,-99.9,-99.9,-99.9,0,0,100,30.01,29.92,7,2,13,0.75
2013-9-20,-200.0,0.0,200.0,-99.9,-99.9,-99.9,0,0,100,30.01,29.86,6,2,11,0.54
2013-9-21,-200.0,0.0,200.0,-99.9,-99.9,-99.9,0,0,100,29.92,29.77,4,0,10,1.37
2013-9-22,-200.0,0.0,200.0,-99.9,-99.9,-99.9,0,0,100,29.89,29.77,4,1,10,0.00
2013-9-23,32.0,0.0,200.0,-99.9,-99.9,-99.9,0,0,100,29.98,29.86,7,2,15,0.20
2013-9-24,-200.0,0.0,200.0,-99.9,-99.9,-99.9,0,0,100,29.98,29.89,4,1,10,0.20
2013-9-25,-200.0,0.0,200.0,-99.9,-99.9,-99.9,0,0,100,29.92,29.86,9,1,13,0.00
2013-9-26,-200.0,0.0,200.0,-99.9,-99.9,-99.9,0,0,100,29.92,29.83,12,4,17,0.00
2013-9-27,-200.0,0.0,200.0,-99.9,-99.9,-99.9,0,0,100,29.92,29.83,11,4,15,0.00
2013-9-28,-200.0,0.0,200.0,-99.9,-99.9,-99.9,0,0,100,29.95,29.86,7,1,11,0.58
2013-9-29,-200.0,0.0,200.0,-99.9,-99.9,-99.9,0,0,100,29.95,29.86,5,2,9,0.00
2013-9-30,-200.0,0.0,200.0,-99.9,-99.9,-99.9,0,0,100,29.98,29.89,6,3,11,0.08